Time;durP1;ratioP1;P1;durP2;ratioP2;P2;SDS_P1;SDS_P2;PMS_P1;PMS_P2;Temp;Humidity;BMP_temperature;BMP_pressure;BME280_temperature;BME280_humidity;BME280_pressure;Samples;Min_cycle;Max_cycle;Signal;HPM_P1;HPM_P2
2021/03/12 00:00:11;;;;;;;18.17;5.87;;;;;;;3.61;86.13;97602.44;5023598;28;20190;-66
2021/03/12 00:02:39;;;;;;;13.03;5.13;;;;;;;3.66;85.50;97600.22;5041550;28;20293;-66
2021/03/12 00:05:07;;;;;;;13.77;5.17;;;;;;;3.48;85.38;97578.00;5040008;28;20447;-66
2021/03/12 00:07:34;;;;;;;15.00;6.23;;;;;;;3.61;85.90;97607.75;5044198;28;20241;-66
2021/03/12 00:10:04;;;;;;;13.67;6.23;;;;;;;3.33;85.63;97545.72;5037816;28;20203;-66
2021/03/12 00:12:31;;;;;;;16.50;5.67;;;;;;;3.70;85.66;97604.28;5036131;28;20726;-66
2021/03/12 00:14:58;;;;;;;16.43;6.53;;;;;;;3.66;85.68;97597.56;5041821;28;20229;-66
2021/03/12 00:17:26;;;;;;;12.60;5.23;;;;;;;3.61;85.65;97603.28;5044040;28;20225;-66
2021/03/12 00:19:54;;;;;;;11.00;5.13;;;;;;;3.65;86.09;97598.53;5038821;28;20216;-66
2021/03/12 00:22:21;;;;;;;11.47;5.20;;;;;;;3.69;85.67;97597.31;5043073;28;20208;-66
2021/03/12 00:24:48;;;;;;;13.80;5.40;;;;;;;3.66;85.68;97593.09;5037849;28;20628;-66
2021/03/12 00:27:16;;;;;;;12.03;5.47;;;;;;;3.72;85.60;97591.72;5024672;28;20246;-67
2021/03/12 00:29:43;;;;;;;13.90;5.30;;;;;;;3.67;85.64;97591.28;5041152;28;20207;-66
2021/03/12 00:32:11;;;;;;;15.97;5.73;;;;;;;3.41;85.35;97545.91;5022234;28;20528;-66
2021/03/12 00:34:39;;;;;;;17.70;5.60;;;;;;;3.69;85.15;97587.53;5023822;28;20520;-66
2021/03/12 00:37:07;;;;;;;15.10;5.57;;;;;;;3.65;85.94;97590.56;5023385;28;20208;-66
2021/03/12 00:39:34;;;;;;;13.03;5.00;;;;;;;3.71;85.25;97582.09;5038798;28;20194;-66
2021/03/12 00:42:11;;;;;;;9.57;4.60;;;;;;;3.71;85.21;97576.78;5022241;28;20214;-65
2021/03/12 00:44:38;;;;;;;11.43;4.70;;;;;;;3.73;85.38;97583.63;5045178;28;20508;-66
2021/03/12 00:47:06;;;;;;;13.40;5.20;;;;;;;3.70;85.26;97577.75;5022833;28;20226;-66
2021/03/12 00:49:34;;;;;;;12.47;5.17;;;;;;;3.77;84.94;97578.88;5028915;28;20202;-66
2021/03/12 00:52:03;;;;;;;12.87;4.67;;;;;;;3.61;85.05;97552.88;5024615;28;20251;-66
2021/03/12 00:54:33;;;;;;;11.77;5.27;;;;;;;3.79;85.00;97571.59;5023388;28;20210;-66
2021/03/12 00:57:21;;;;;;;11.53;4.87;;;;;;;3.64;84.33;97544.63;5020404;28;20295;-66
2021/03/12 00:59:48;;;;;;;18.27;5.57;;;;;;;3.79;84.63;97576.91;5022613;28;20464;-66
2021/03/12 01:02:15;;;;;;;12.17;5.03;;;;;;;3.68;85.04;97571.75;5022133;28;20203;-66
2021/03/12 01:04:43;;;;;;;15.03;5.83;;;;;;;3.65;85.46;97564.88;5040622;28;20221;-66
2021/03/12 01:07:14;;;;;;;12.37;4.70;;;;;;;3.61;85.33;97549.38;5024927;28;20269;-66
2021/03/12 01:09:43;;;;;;;13.17;5.03;;;;;;;3.78;85.05;97555.81;5023679;28;20203;-66
2021/03/12 01:12:26;;;;;;;11.57;4.77;;;;;;;3.71;85.54;97561.69;5020298;28;20694;-66
2021/03/12 01:14:54;;;;;;;14.20;5.53;;;;;;;3.62;85.32;97538.63;5025211;28;20216;-66
2021/03/12 01:17:23;;;;;;;13.03;5.47;;;;;;;3.63;85.71;97555.38;5025468;28;20218;-65
2021/03/12 01:19:50;;;;;;;66.53;32.50;;;;;;;3.69;85.50;97554.84;5038216;28;20209;-66
2021/03/12 01:22:18;;;;;;;14.87;6.30;;;;;;;3.68;85.92;97553.19;5040095;28;20203;-66
2021/03/12 01:24:47;;;;;;;18.33;7.03;;;;;;;3.72;85.54;97552.75;5027673;28;20444;-65
2021/03/12 01:27:17;;;;;;;24.90;13.70;;;;;;;3.78;85.16;97555.81;5038137;28;20230;-65
2021/03/12 01:29:44;;;;;;;15.40;5.97;;;;;;;3.80;85.58;97557.34;5024378;28;20214;-66
2021/03/12 01:32:19;;;;;;;15.83;6.63;;;;;;;3.84;85.22;97548.13;5024729;28;20208;-66
2021/03/12 01:34:52;;;;;;;18.10;6.50;;;;;;;3.84;84.92;97550.78;5024254;28;20266;-66
2021/03/12 01:37:20;;;;;;;13.53;5.30;;;;;;;3.86;85.11;97553.28;5043485;28;20292;-66
2021/03/12 01:39:56;;;;;;;17.23;7.27;;;;;;;3.88;85.08;97554.00;5022389;28;20208;-66
2021/03/12 01:42:29;;;;;;;13.37;5.60;;;;;;;3.89;85.46;97553.84;5026712;28;20752;-66
2021/03/12 01:44:56;;;;;;;13.27;6.00;;;;;;;3.92;85.01;97558.03;5047025;28;20383;-67
2021/03/12 01:47:24;;;;;;;100.60;56.60;;;;;;;3.94;84.72;97564.88;5046108;28;20681;-66
2021/03/12 01:49:51;;;;;;;18.63;7.00;;;;;;;3.77;84.41;97530.25;5045558;28;20661;-66
2021/03/12 01:52:19;;;;;;;20.40;6.33;;;;;;;3.96;84.60;97562.06;5041549;28;20680;-66
2021/03/12 01:54:46;;;;;;;14.67;5.37;;;;;;;3.96;84.45;97546.97;5026356;28;20270;-66
2021/03/12 01:57:16;;;;;;;11.47;4.87;;;;;;;3.98;84.20;97553.00;5031653;28;20541;-66
2021/03/12 01:59:57;;;;;;;13.57;5.47;;;;;;;3.92;84.52;97545.59;5034612;28;20667;-66
2021/03/12 02:02:51;;;;;;;13.70;5.70;;;;;;;3.99;84.13;97545.88;5039799;28;20229;-65
2021/03/12 02:05:39;;;;;;;13.47;6.13;;;;;;;4.00;84.59;97542.25;5041938;28;20206;-66
2021/03/12 02:08:09;;;;;;;12.23;5.57;;;;;;;4.03;84.22;97541.97;5025052;28;20225;-66
2021/03/12 02:10:44;;;;;;;11.60;5.67;;;;;;;4.03;84.00;97542.81;5026100;28;20213;-66
2021/03/12 02:13:31;;;;;;;19.33;5.53;;;;;;;4.02;83.86;97534.97;5028534;28;20209;-66
2021/03/12 02:16:07;;;;;;;15.83;5.67;;;;;;;4.09;84.01;97540.56;5043009;28;20728;-65
2021/03/12 02:18:45;;;;;;;9.43;4.40;;;;;;;4.10;83.74;97536.91;5045371;28;20719;-65
2021/03/12 02:21:18;;;;;;;14.03;5.47;;;;;;;4.04;84.13;97539.16;5029512;28;20203;-65
2021/03/12 02:23:54;;;;;;;13.77;5.13;;;;;;;4.02;83.46;97533.16;5023511;28;20193;-66
2021/03/12 02:26:35;;;;;;;12.97;4.67;;;;;;;4.06;83.48;97528.41;5045274;28;20337;-66
2021/03/12 02:29:08;;;;;;;12.30;4.47;;;;;;;3.81;83.38;97492.69;5032349;28;20240;-66
2021/03/12 02:31:39;;;;;;;11.10;5.03;;;;;;;3.97;83.37;97516.81;5028937;28;20213;-66
2021/03/12 02:34:10;;;;;;;12.47;4.37;;;;;;;4.07;82.79;97538.03;5040918;28;20541;-66
2021/03/12 02:36:42;;;;;;;11.00;5.03;;;;;;;3.85;82.67;97502.03;5045238;28;20200;-66
2021/03/12 02:39:14;;;;;;;8.87;4.33;;;;;;;4.03;83.29;97537.50;5043956;28;20196;-66
2021/03/12 02:41:44;;;;;;;9.30;3.67;;;;;;;4.07;82.95;97537.22;5024739;28;20225;-65
2021/03/12 02:44:17;;;;;;;10.03;4.53;;;;;;;4.06;82.79;97536.38;5027032;28;20629;-65
2021/03/12 02:46:58;;;;;;;9.27;3.93;;;;;;;4.09;82.89;97540.56;5042808;28;20287;-66
2021/03/12 02:49:27;;;;;;;10.50;4.43;;;;;;;4.06;83.03;97536.38;5045463;28;20678;-66
2021/03/12 02:51:56;;;;;;;11.43;4.97;;;;;;;3.98;83.36;97539.75;5025988;28;20193;-66
2021/03/12 02:54:24;;;;;;;16.30;5.40;;;;;;;4.01;83.22;97538.63;5045043;28;20219;-66
2021/03/12 02:56:52;;;;;;;12.97;5.13;;;;;;;4.02;82.53;97530.50;5028306;28;20589;-66
2021/03/12 02:59:21;;;;;;;10.60;4.57;;;;;;;4.04;82.70;97533.84;5028053;28;20205;-66
2021/03/12 03:02:12;;;;;;;7.20;3.97;;;;;;;3.96;82.69;97531.06;5041504;28;21021;-67
2021/03/12 03:05:00;;;;;;;9.33;4.40;;;;;;;4.04;82.94;97533.03;5041305;28;20212;-66
2021/03/12 03:07:39;;;;;;;10.07;3.93;;;;;;;4.02;82.53;97540.28;5028041;28;20220;-66
2021/03/12 03:10:09;;;;;;;12.30;4.53;;;;;;;4.03;82.75;97540.16;5025482;28;20292;-66
2021/03/12 03:12:38;;;;;;;10.90;3.87;;;;;;;4.03;82.65;97548.13;5045605;28;20209;-65
2021/03/12 03:15:08;;;;;;;9.33;4.17;;;;;;;4.04;82.67;97544.47;5021738;28;20216;-66
2021/03/12 03:17:37;;;;;;;60.20;47.97;;;;;;;4.05;82.14;97535.53;5039678;28;20200;-66
2021/03/12 03:20:10;;;;;;;1999.90;999.90;;;;;;;4.10;82.07;97543.06;5042143;28;20201;-66
2021/03/12 03:22:40;;;;;;;740.93;273.70;;;;;;;4.11;82.25;97546.56;5026786;28;20254;-66
2021/03/12 03:25:09;;;;;;;62.33;27.27;;;;;;;4.12;82.63;97542.91;5029773;28;20226;-66
2021/03/12 03:27:39;;;;;;;11.80;5.00;;;;;;;4.12;82.90;97548.22;5021803;28;20313;-66
2021/03/12 03:30:10;;;;;;;11.30;4.97;;;;;;;4.13;82.44;97542.78;5023836;28;20240;-66
2021/03/12 03:32:39;;;;;;;12.00;6.30;;;;;;;4.19;82.22;97546.66;5030127;28;20213;-66
2021/03/12 03:35:08;;;;;;;13.73;7.47;;;;;;;4.18;82.75;97551.16;5047178;28;20287;-65
2021/03/12 03:37:37;;;;;;;23.73;13.87;;;;;;;4.18;82.80;97556.47;5026289;28;20275;-66
2021/03/12 03:40:07;;;;;;;10.97;5.40;;;;;;;4.21;82.49;97550.03;5023759;28;20201;-66
2021/03/12 03:42:36;;;;;;;8.60;4.20;;;;;;;4.25;82.15;97556.72;5044574;28;20216;-66
2021/03/12 03:45:10;;;;;;;10.40;5.03;;;;;;;4.16;82.54;97546.97;5025196;28;20283;-66
2021/03/12 03:47:44;;;;;;;10.73;3.90;;;;;;;4.22;82.44;97551.69;5027756;28;20289;-66
2021/03/12 03:50:14;;;;;;;7.43;4.23;;;;;;;4.25;82.04;97567.34;5039674;28;20464;-66
2021/03/12 03:52:43;;;;;;;8.37;3.77;;;;;;;4.19;82.47;97559.94;5020156;28;20290;-66
2021/03/12 03:55:16;;;;;;;11.63;3.77;;;;;;;4.13;82.65;97563.19;5036738;28;20576;-66
2021/03/12 03:57:44;;;;;;;14.37;7.30;;;;;;;4.14;82.49;97560.38;5039323;28;20772;-66
2021/03/12 04:00:15;;;;;;;13.33;5.80;;;;;;;4.16;82.70;97563.72;5028962;28;20622;-66
2021/03/12 04:02:44;;;;;;;8.30;4.10;;;;;;;3.97;82.49;97540.69;5041873;28;20224;-66
2021/03/12 04:05:15;;;;;;;10.23;5.40;;;;;;;4.21;82.11;97569.44;5026431;28;20233;-66
2021/03/12 04:07:52;;;;;;;9.13;4.13;;;;;;;4.20;82.23;97564.28;5025136;28;20221;-66
2021/03/12 04:10:20;;;;;;;5.57;2.93;;;;;;;4.23;82.57;97566.66;5041601;28;20217;-66
2021/03/12 04:12:49;;;;;;;15.37;11.23;;;;;;;4.28;81.89;97567.03;5039451;28;20286;-66
2021/03/12 04:15:21;;;;;;;9.87;4.47;;;;;;;4.31;82.18;97572.94;5041070;28;20382;-66
2021/03/12 04:17:52;;;;;;;10.10;3.90;;;;;;;3.95;81.87;97518.75;5038945;28;20221;-66
2021/03/12 04:20:22;;;;;;;7.27;3.30;;;;;;;4.30;81.57;97573.09;5027361;28;20680;-66
2021/03/12 04:22:51;;;;;;;8.13;3.53;;;;;;;4.28;81.61;97582.97;5022411;28;20255;-66
2021/03/12 04:25:22;;;;;;;5.50;2.80;;;;;;;4.25;82.06;97576.13;5026410;28;20211;-67
2021/03/12 04:27:49;;;;;;;5.43;2.80;;;;;;;4.27;81.93;97579.50;5018494;28;20315;-66
2021/03/12 04:30:19;;;;;;;7.83;3.40;;;;;;;4.27;82.15;97581.31;5025109;28;20212;-66
2021/03/12 04:32:48;;;;;;;6.13;3.33;;;;;;;4.30;82.07;97581.06;5023773;28;20651;-66
2021/03/12 04:35:16;;;;;;;6.80;3.13;;;;;;;4.32;81.94;97587.06;5044201;28;20224;-66
2021/03/12 04:37:45;;;;;;;4.63;2.80;;;;;;;4.32;81.80;97581.75;5041964;28;20209;-66
2021/03/12 04:40:17;;;;;;;6.47;3.17;;;;;;;4.35;81.87;97592.06;5027001;28;20219;-66
2021/03/12 04:42:48;;;;;;;3.23;2.40;;;;;;;4.35;81.09;97587.59;5022942;28;20308;-66
2021/03/12 04:45:19;;;;;;;6.20;2.60;;;;;;;4.32;81.67;97582.59;5023746;28;20193;-66
2021/03/12 04:47:52;;;;;;;4.27;2.57;;;;;;;4.37;81.50;97592.78;5026466;28;20797;-66
2021/03/12 04:50:21;;;;;;;5.70;2.73;;;;;;;4.38;81.25;97596.25;5023096;28;20292;-66
2021/03/12 04:52:50;;;;;;;7.47;3.00;;;;;;;4.39;81.27;97596.13;5028968;28;20723;-66
2021/03/12 04:55:20;;;;;;;5.83;2.30;;;;;;;4.40;81.25;97597.78;5021488;28;20216;-66
2021/03/12 04:57:51;;;;;;;5.47;2.53;;;;;;;4.34;81.46;97606.34;5025164;28;20668;-66
2021/03/12 05:00:21;;;;;;;3.83;2.07;;;;;;;4.36;81.16;97602.56;5021723;28;20205;-66
2021/03/12 05:02:56;;;;;;;3.87;1.70;;;;;;;4.35;80.94;97597.41;5024587;28;21651;-65
2021/03/12 05:05:29;;;;;;;2.53;1.73;;;;;;;4.43;80.53;97605.47;5022727;28;20197;-65
2021/03/12 05:07:57;;;;;;;2.60;1.63;;;;;;;4.43;80.63;97610.78;5028012;28;20209;-65
2021/03/12 05:10:38;;;;;;;2.87;1.33;;;;;;;4.47;80.54;97616.66;5028270;28;20403;-65
2021/03/12 05:13:07;;;;;;;1633.63;725.50;;;;;;;4.43;80.46;97617.91;5027414;28;20982;-64
2021/03/12 05:15:40;;;;;;;337.63;136.67;;;;;;;4.42;81.24;97613.59;5042217;28;20201;-65
2021/03/12 05:18:09;;;;;;;42.80;19.93;;;;;;;4.47;80.54;97616.66;5023547;28;20280;-65
2021/03/12 05:20:39;;;;;;;8.93;5.40;;;;;;;4.48;80.90;97621.81;5023155;28;20243;-65
2021/03/12 05:23:09;;;;;;;12.20;5.90;;;;;;;4.42;80.69;97610.94;5023306;28;20984;-67
2021/03/12 05:25:36;;;;;;;7.13;4.83;;;;;;;4.58;80.65;97635.06;5032944;28;20217;-67
2021/03/12 05:28:05;;;;;;;5.37;2.67;;;;;;;4.59;80.83;97634.09;5038815;28;20306;-66
2021/03/12 05:30:32;;;;;;;34.23;24.00;;;;;;;4.68;80.15;97631.44;5039187;28;20308;-66
2021/03/12 05:32:59;;;;;;;4.80;3.50;;;;;;;4.68;80.67;97644.72;5016361;28;20296;-66
2021/03/12 05:35:28;;;;;;;5.20;4.37;;;;;;;4.70;80.80;97639.25;5021225;28;20688;-66
2021/03/12 05:37:55;;;;;;;3.27;2.60;;;;;;;4.74;80.42;97645.94;5037829;28;20200;-66
2021/03/12 05:40:27;;;;;;;2.63;1.47;;;;;;;4.56;80.14;97608.66;5022538;28;20210;-66
2021/03/12 05:42:56;;;;;;;2.90;2.67;;;;;;;4.80;80.39;97644.53;5022735;28;20209;-65
2021/03/12 05:45:24;;;;;;;2.53;1.67;;;;;;;4.76;80.30;97641.31;5039975;28;20869;-65
2021/03/12 05:48:01;;;;;;;5.57;1.00;;;;;;;4.83;80.47;97649.56;5036958;28;20680;-65
2021/03/12 05:50:30;;;;;;;3.33;2.77;;;;;;;4.88;79.77;97655.28;5019500;28;20339;-65
2021/03/12 05:52:58;;;;;;;4.33;1.83;;;;;;;4.89;79.53;97651.63;5024617;28;20233;-65
2021/03/12 05:55:26;;;;;;;4.47;1.70;;;;;;;4.89;80.04;97654.28;5021245;28;20209;-66
2021/03/12 05:57:54;;;;;;;3.03;1.57;;;;;;;4.90;80.05;97653.34;5035739;28;20205;-65
2021/03/12 06:00:22;;;;;;;2.53;2.27;;;;;;;4.89;79.82;97652.47;5026556;28;20244;-65
2021/03/12 06:02:55;;;;;;;2.80;0.80;;;;;;;4.97;79.59;97649.94;5028217;28;20206;-65
2021/03/12 06:05:45;;;;;;;4.63;0.80;;;;;;;5.00;79.34;97656.78;5053514;28;20255;-65
2021/03/12 06:08:13;;;;;;;0.40;0.33;;;;;;;4.90;79.75;97653.34;5031751;28;20225;-65
2021/03/12 06:10:44;;;;;;;3.43;1.00;;;;;;;4.97;79.73;97662.41;5050385;28;20289;-65
2021/03/12 06:13:15;;;;;;;5.37;0.90;;;;;;;4.97;79.30;97665.06;5036058;28;20275;-64
2021/03/12 06:15:45;;;;;;;5.93;1.03;;;;;;;4.96;79.31;97674.03;5047514;28;20627;-65
2021/03/12 06:18:22;;;;;;;3.43;1.03;;;;;;;4.98;78.68;97670.22;5048631;28;20209;-65
2021/03/12 06:20:59;;;;;;;4.30;0.80;;;;;;;5.02;78.63;97667.28;5069406;28;20219;-65
2021/03/12 06:23:34;;;;;;;4.53;0.93;;;;;;;4.97;78.93;97676.53;5037829;28;20193;-65
2021/03/12 06:26:09;;;;;;;2.50;0.80;;;;;;;4.99;79.16;97681.72;5046091;28;20229;-65
2021/03/12 06:28:45;;;;;;;4.40;1.17;;;;;;;4.98;79.01;97682.69;5047110;28;20217;-65
2021/03/12 06:31:30;;;;;;;4.57;1.03;;;;;;;4.98;78.50;97693.31;5036680;28;20652;-65
2021/03/12 06:34:16;;;;;;;7.73;0.70;;;;;;;4.99;78.72;97697.66;5054930;28;20288;-66
2021/03/12 06:37:24;;;;;;;7.25;1.20;;;;;;;4.73;79.29;97657.56;5051730;28;20447;-65
2021/03/12 06:40:13;;;;;;;3.53;0.90;;;;;;;4.76;79.43;97667.91;5052474;28;20206;-65
2021/03/12 06:43:03;;;;;;;1.23;0.80;;;;;;;5.03;79.34;97707.03;5045258;28;20206;-65
2021/03/12 06:45:32;;;;;;;1.27;0.80;;;;;;;5.02;79.44;97705.34;5050729;28;20209;-65
2021/03/12 06:48:15;;;;;;;2.97;0.73;;;;;;;5.09;78.91;97717.06;5049410;28;20433;-66
2021/03/12 06:50:48;;;;;;;1.90;0.80;;;;;;;5.11;78.62;97715.09;5034742;28;20211;-65
2021/03/12 06:53:25;;;;;;;2.30;0.67;;;;;;;5.15;78.81;97721.81;5038615;28;20606;-65
2021/03/12 06:55:53;;;;;;;2.47;0.93;;;;;;;5.16;78.33;97718.16;5059815;28;20653;-65
2021/03/12 06:58:32;;;;;;;1.03;0.80;;;;;;;5.17;78.75;97733.13;5049295;28;20221;-65
2021/03/12 07:01:18;;;;;;;3.97;0.90;;;;;;;5.18;78.23;97732.16;5049673;28;20201;-65
2021/03/12 07:04:07;;;;;;;1.93;0.70;;;;;;;5.13;79.13;97745.06;5052981;28;20208;-66
2021/03/12 07:06:45;;;;;;;9.13;2.83;;;;;;;5.14;79.19;97737.91;5046125;28;20675;-66
2021/03/12 07:09:16;;;;;;;48.80;20.77;;;;;;;4.88;78.50;97687.19;5037904;28;20735;-66
2021/03/12 07:11:54;;;;;;;23.23;7.40;;;;;;;5.27;78.71;97749.09;5041874;28;20447;-67
2021/03/12 07:14:51;;;;;;;11.47;6.97;;;;;;;5.33;78.16;97753.00;5034152;28;20216;-65
2021/03/12 07:17:29;;;;;;;16.97;11.00;;;;;;;5.37;77.98;97760.53;5049298;28;20211;-65
2021/03/12 07:20:06;;;;;;;1.33;1.23;;;;;;;5.41;78.32;97763.72;5044406;28;20281;-65
2021/03/12 07:22:35;;;;;;;3.07;1.40;;;;;;;5.43;77.85;97762.59;5060676;28;20259;-65
2021/03/12 07:25:08;;;;;;;4.70;3.13;;;;;;;5.50;77.78;97774.34;5050862;28;20197;-65
2021/03/12 07:27:41;;;;;;;6.47;2.50;;;;;;;5.33;77.77;97739.69;5045929;28;20238;-65
2021/03/12 07:30:17;;;;;;;8.90;5.33;;;;;;;5.61;77.72;97776.84;5043297;28;20221;-65
2021/03/12 07:32:47;;;;;;;4.17;3.00;;;;;;;5.60;77.44;97761.84;5043471;28;20210;-66
2021/03/12 07:35:24;;;;;;;15.37;5.37;;;;;;;5.70;77.22;97792.91;5062152;28;20201;-66
2021/03/12 07:38:07;;;;;;;5.53;2.30;;;;;;;5.69;77.21;97785.91;5059910;28;20234;-65
2021/03/12 07:40:42;;;;;;;8.37;2.13;;;;;;;5.75;76.59;97790.63;5040531;28;20206;-65
2021/03/12 07:43:21;;;;;;;5.73;1.50;;;;;;;5.71;76.61;97784.75;5065429;28;20212;-65
2021/03/12 07:46:04;;;;;;;2.27;1.50;;;;;;;5.49;76.48;97753.19;5038695;28;20664;-66
2021/03/12 07:49:34;;;;;;;3.33;1.33;;;;;;;5.76;76.40;97798.47;5054362;28;20701;-65
2021/03/12 07:52:48;;;;;;;20.03;11.20;;;;;;;5.80;76.84;97802.50;5050248;28;20672;-65
2021/03/12 07:55:59;;;;;;;1.87;1.77;;;;;;;5.86;75.98;97807.28;5048316;28;20682;-66
2021/03/12 07:58:54;;;;;;;10.83;1.50;;;;;;;5.84;76.33;97813.75;5063718;28;20207;-65
2021/03/12 08:01:50;;;;;;;3.53;1.30;;;;;;;5.91;75.87;97820.19;5050425;28;20220;-65
2021/03/12 08:04:29;;;;;;;7.13;0.87;;;;;;;5.84;75.94;97821.72;5048582;28;20677;-65
2021/03/12 08:07:34;;;;;;;5.33;0.93;;;;;;;5.87;76.08;97822.28;5064053;28;20201;-65
2021/03/12 08:10:17;;;;;;;6.97;1.50;;;;;;;5.83;76.50;97828.88;5037421;28;20292;-65
2021/03/12 08:13:28;;;;;;;2.90;0.83;;;;;;;5.90;76.20;97830.00;5057783;28;20205;-65
2021/03/12 08:16:19;;;;;;;8.93;0.87;;;;;;;6.01;75.32;97836.09;5061863;28;20218;-65
2021/03/12 08:18:51;;;;;;;4.17;0.97;;;;;;;6.06;74.72;97844.50;5044933;28;20224;-65
2021/03/12 08:21:45;;;;;;;7.93;1.73;;;;;;;6.13;74.38;97846.44;5048039;28;20215;-65
2021/03/12 08:24:48;;;;;;;3.93;1.17;;;;;;;6.15;75.46;97849.78;5040441;28;20224;-65
2021/03/12 08:27:55;;;;;;;5.57;0.93;;;;;;;6.34;74.02;97854.16;5053981;28;20220;-64
2021/03/12 08:30:47;;;;;;;6.70;0.83;;;;;;;6.31;74.31;97859.78;5039518;28;20299;-66
2021/03/12 08:33:40;;;;;;;1.57;0.90;;;;;;;6.43;74.25;97871.94;5052683;28;20687;-66
2021/03/12 08:36:24;;;;;;;6.27;0.80;;;;;;;6.52;73.50;97879.03;5067003;28;20708;-66
2021/03/12 08:39:27;;;;;;;3.33;1.17;;;;;;;6.56;74.04;97890.25;5063296;28;20545;-66
2021/03/12 08:42:19;;;;;;;6.47;1.37;;;;;;;6.58;74.07;97890.09;5056638;28;20570;-65
2021/03/12 08:45:32;;;;;;;4.67;1.20;;;;;;;6.61;74.75;97903.13;5031140;28;20210;-65
2021/03/12 08:48:17;;;;;;;1.60;0.70;;;;;;;6.76;74.33;97901.63;5071229;28;20306;-65
2021/03/12 08:50:52;;;;;;;9.77;0.97;;;;;;;6.77;73.73;97903.31;5052162;28;20205;-65
2021/03/12 08:53:20;;;;;;;4.07;1.10;;;;;;;6.83;73.59;97913.38;5049312;28;20683;-65
2021/03/12 08:55:52;;;;;;;10.10;0.97;;;;;;;6.89;73.62;97906.59;5054174;28;20224;-65
2021/03/12 08:58:25;;;;;;;9.63;0.70;;;;;;;6.92;72.41;97901.78;5045085;28;20356;-65
2021/03/12 09:01:08;;;;;;;4.07;1.00;;;;;;;7.10;72.30;97924.00;5064498;28;20282;-65
2021/03/12 09:03:50;;;;;;;2.00;1.00;;;;;;;7.12;72.42;97924.69;5064094;28;20206;-65
2021/03/12 09:06:39;;;;;;;9.67;1.20;;;;;;;7.11;73.00;97935.50;5050691;28;20671;-65
2021/03/12 09:09:26;;;;;;;5.57;1.00;;;;;;;7.28;72.49;97939.16;5065893;28;20263;-65
2021/03/12 09:12:14;;;;;;;8.80;1.50;;;;;;;7.27;71.94;97934.81;5069111;28;20244;-66
2021/03/12 09:14:55;;;;;;;9.30;1.10;;;;;;;7.34;72.09;97949.22;5049892;28;20215;-65
2021/03/12 09:17:25;;;;;;;2.60;0.60;;;;;;;7.48;71.59;97954.03;5049607;28;20243;-65
2021/03/12 09:19:57;;;;;;;57.30;36.53;;;;;;;7.49;71.99;97963.72;5060158;28;20205;-64
2021/03/12 09:22:31;;;;;;;534.80;194.27;;;;;;;7.45;71.37;97962.34;5070046;28;20194;-65
2021/03/12 09:25:01;;;;;;;25.30;7.20;;;;;;;7.46;70.72;97975.53;5046981;28;20562;-64
2021/03/12 09:27:58;;;;;;;11.83;2.67;;;;;;;7.53;71.19;97978.44;5043449;28;20368;-64
2021/03/12 09:30:27;;;;;;;11.47;4.43;;;;;;;7.63;70.67;97979.19;5041198;28;20244;-64
2021/03/12 09:33:06;;;;;;;4.83;1.67;;;;;;;7.63;70.51;97987.19;5039875;28;20229;-64
2021/03/12 09:35:54;;;;;;;6.93;1.97;;;;;;;7.30;71.22;97934.50;5048293;28;20254;-65
2021/03/12 09:38:38;;;;;;;6.10;2.83;;;;;;;7.70;70.75;97988.28;5045183;28;20674;-65
2021/03/12 09:41:16;;;;;;;158.73;95.47;;;;;;;7.73;70.09;97992.47;5049783;28;20208;-65
2021/03/12 09:43:58;;;;;;;25.87;18.13;;;;;;;7.75;69.72;97991.31;5050119;28;20614;-65
2021/03/12 09:46:28;;;;;;;26.77;14.10;;;;;;;7.67;70.58;97998.44;5049421;28;20209;-65
2021/03/12 09:49:01;;;;;;;67.03;38.73;;;;;;;7.74;69.96;97983.47;5046348;28;20315;-65
2021/03/12 09:51:37;;;;;;;7.73;3.87;;;;;;;7.70;70.76;97993.63;5048818;28;20200;-66
2021/03/12 09:54:08;;;;;;;3.73;1.30;;;;;;;7.73;70.07;97995.13;5040349;28;20192;-66
2021/03/12 09:56:40;;;;;;;6.87;1.90;;;;;;;7.77;69.73;97994.66;5040544;28;20193;-65
2021/03/12 09:59:12;;;;;;;4.03;1.07;;;;;;;7.77;70.19;97993.84;5058278;28;20285;-65
2021/03/12 10:02:03;;;;;;;3.90;1.57;;;;;;;7.89;69.58;98000.59;5041012;28;20195;-65
2021/03/12 10:05:06;;;;;;;5.50;1.20;;;;;;;7.89;69.16;98002.44;5039746;28;20283;-65
2021/03/12 10:08:02;;;;;;;6.13;1.87;;;;;;;7.73;70.17;97998.66;5042618;28;20558;-65
2021/03/12 10:10:41;;;;;;;5.33;1.70;;;;;;;7.84;70.05;98007.41;5040051;28;20194;-65
2021/03/12 10:13:26;;;;;;;6.70;1.00;;;;;;;7.99;70.21;98003.19;5036068;28;20233;-65
2021/03/12 10:16:11;;;;;;;4.53;1.50;;;;;;;8.19;69.43;98002.00;5036683;28;20216;-65
2021/03/12 10:19:08;;;;;;;4.10;1.07;;;;;;;8.32;68.37;98018.47;5038395;28;20205;-65
2021/03/12 10:21:35;;;;;;;6.97;1.20;;;;;;;8.35;68.32;98015.50;5047726;28;20321;-65
2021/03/12 10:24:03;;;;;;;3.33;0.77;;;;;;;8.48;68.00;98008.88;5046617;28;20199;-65
2021/03/12 10:26:31;;;;;;;7.13;1.00;;;;;;;8.50;67.56;98022.94;5042293;28;20639;-65
2021/03/12 10:28:59;;;;;;;2.80;1.33;;;;;;;8.38;67.57;98001.00;5059914;28;20220;-65
2021/03/12 10:31:37;;;;;;;1.47;0.80;;;;;;;8.58;67.85;98025.69;5068234;28;20197;-65
2021/03/12 10:34:05;;;;;;;4.33;0.60;;;;;;;8.62;67.46;98025.19;5064416;28;20564;-65
2021/03/12 10:36:32;;;;;;;1.87;0.80;;;;;;;8.68;68.11;98021.03;5064890;28;20253;-65
2021/03/12 10:39:16;;;;;;;4.70;0.97;;;;;;;8.84;66.62;98029.13;5062151;28;20275;-66
2021/03/12 10:41:44;;;;;;;2.80;0.77;;;;;;;8.69;66.10;98004.00;5065460;28;20221;-65
2021/03/12 10:44:14;;;;;;;5.23;1.20;;;;;;;8.90;66.68;98038.38;5070344;28;20626;-64
2021/03/12 10:46:41;;;;;;;1.67;0.70;;;;;;;8.89;65.74;98031.34;5065694;28;20597;-64
2021/03/12 10:49:09;;;;;;;6.63;1.17;;;;;;;8.86;67.37;98051.22;5059105;28;20214;-65
2021/03/12 10:51:39;;;;;;;5.53;0.97;;;;;;;8.95;66.27;98028.88;5068747;28;20280;-65
2021/03/12 10:54:08;;;;;;;4.57;1.13;;;;;;;8.97;66.01;98064.34;5066706;28;20250;-65
2021/03/12 10:56:47;;;;;;;1.53;1.03;;;;;;;9.01;65.79;98063.03;5047477;28;20576;-65
2021/03/12 10:59:15;;;;;;;6.23;1.50;;;;;;;9.21;65.18;98058.25;5066068;28;20280;-65
2021/03/12 11:01:46;;;;;;;11.60;1.60;;;;;;;9.09;64.95;98056.03;5067504;28;20210;-65
2021/03/12 11:04:16;;;;;;;2.10;0.60;;;;;;;9.20;65.05;98069.13;5065455;28;20212;-65
2021/03/12 11:06:43;;;;;;;6.33;1.10;;;;;;;9.22;65.09;98076.00;5067385;28;20286;-65
2021/03/12 11:09:13;;;;;;;4.50;1.00;;;;;;;9.16;65.13;98068.59;5066726;28;20239;-65
2021/03/12 11:11:43;;;;;;;6.90;0.90;;;;;;;9.12;65.48;98056.53;5048102;28;20225;-65
2021/03/12 11:14:12;;;;;;;1.70;0.73;;;;;;;9.22;64.79;98069.81;5069575;28;20707;-65
2021/03/12 11:16:39;;;;;;;2.27;0.90;;;;;;;9.26;65.17;98077.34;5061909;28;20247;-65
2021/03/12 11:19:07;;;;;;;1.97;0.93;;;;;;;9.24;64.22;98068.66;5062011;28;20572;-65
2021/03/12 11:21:34;;;;;;;2.73;0.90;;;;;;;9.19;64.98;98072.81;5064268;28;20197;-65
2021/03/12 11:24:01;;;;;;;4.13;1.03;;;;;;;9.32;64.76;98075.88;5066523;28;20209;-65
2021/03/12 11:26:29;;;;;;;2.07;0.90;;;;;;;9.37;64.21;98086.09;5068503;28;20236;-65
2021/03/12 11:28:56;;;;;;;4.53;1.03;;;;;;;9.22;64.27;98092.06;5065483;28;20213;-65
2021/03/12 11:31:27;;;;;;;2.60;0.93;;;;;;;9.18;64.56;98092.53;5061573;28;20203;-65
2021/03/12 11:33:55;;;;;;;3.20;1.20;;;;;;;9.24;65.10;98097.25;5046456;28;20633;-65
2021/03/12 11:36:22;;;;;;;6.43;1.70;;;;;;;9.19;65.27;98094.22;5061634;28;20209;-65
2021/03/12 11:38:50;;;;;;;2.30;0.70;;;;;;;9.22;64.96;98105.47;5068468;28;20273;-65
2021/03/12 11:41:17;;;;;;;3.83;0.97;;;;;;;9.15;64.86;98104.41;5059757;28;20399;-65
2021/03/12 11:43:49;;;;;;;3.20;1.10;;;;;;;9.07;65.01;98098.16;5068960;28;20196;-64
2021/03/12 11:46:16;;;;;;;2.30;1.03;;;;;;;9.08;64.59;98103.38;5064047;28;20659;-65
2021/03/12 11:48:44;;;;;;;1.23;0.67;;;;;;;9.16;65.21;98099.88;5056324;28;20241;-65
2021/03/12 11:51:11;;;;;;;4.07;1.13;;;;;;;9.19;65.05;98110.31;5067833;28;20723;-65
2021/03/12 11:53:39;;;;;;;9.30;1.17;;;;;;;9.31;64.93;98120.56;5066529;28;20250;-65
2021/03/12 11:56:06;;;;;;;0.60;0.60;;;;;;;9.35;63.95;98110.34;5062232;28;20288;-65
2021/03/12 11:58:33;;;;;;;6.80;1.00;;;;;;;9.35;63.76;98110.34;5063797;28;20691;-65
2021/03/12 12:01:01;;;;;;;7.80;1.17;;;;;;;9.52;63.94;98122.81;5046179;28;20261;-65
2021/03/12 12:03:28;;;;;;;2.97;0.70;;;;;;;9.60;63.70;98116.63;5067742;28;20695;-64
2021/03/12 12:05:56;;;;;;;3.73;1.10;;;;;;;9.64;62.79;98126.03;5066433;28;20752;-65
2021/03/12 12:08:23;;;;;;;3.30;0.80;;;;;;;9.74;63.04;98120.53;5063382;28;20564;-65
2021/03/12 12:10:50;;;;;;;2.03;1.07;;;;;;;9.70;61.92;98125.38;5059299;28;20224;-64